Time;durP1;ratioP1;P1;durP2;ratioP2;P2;SDS_P1;SDS_P2;PMS_P1;PMS_P2;Temp;Humidity;BMP_temperature;BMP_pressure;BME280_temperature;BME280_humidity;BME280_pressure;Samples;Min_cycle;Max_cycle;Signal;HPM_P1;HPM_P2
2021/04/16 00:00:58;;;;;;;5.60;3.63;;;3.50;56.50;;;4.15;47.24;98384.75;4927797;29;20356;-41
2021/04/16 00:03:26;;;;;;;5.13;3.43;;;3.50;56.40;;;4.14;46.89;98381.25;4928591;29;20063;-41
2021/04/16 00:05:55;;;;;;;6.07;3.67;;;3.50;56.50;;;4.11;47.21;98370.06;4928877;29;20044;-40
2021/04/16 00:08:30;;;;;;;6.87;4.00;;;3.50;56.60;;;4.08;47.29;98376.38;4911751;29;20058;-41
2021/04/16 00:11:22;;;;;;;;;;;3.40;56.60;;;4.03;47.58;98377.63;4929282;29;20052;-41
2021/04/16 00:13:49;;;;;;;9.07;4.90;;;3.30;58.30;;;4.00;47.35;98369.97;4927932;29;19927;-41
2021/04/16 00:16:24;;;;;;;6.57;4.47;;;3.20;57.00;;;3.94;47.22;98368.56;4928753;29;20345;-41
2021/04/16 00:18:52;;;;;;;5.87;3.97;;;3.20;57.20;;;3.90;47.45;98367.91;4927941;29;20081;-40
2021/04/16 00:21:20;;;;;;;6.43;3.80;;;3.20;57.40;;;3.86;47.61;98363.81;4928565;29;20097;-40
2021/04/16 00:23:47;;;;;;;5.73;3.90;;;3.20;57.60;;;3.83;47.79;98360.53;4928482;29;20052;-40
2021/04/16 00:26:15;;;;;;;7.00;4.17;;;3.10;58.00;;;3.77;47.96;98358.31;4928413;29;20384;-40
2021/04/16 00:28:43;;;;;;;6.17;3.60;;;3.00;58.10;;;3.72;47.99;98358.59;4928115;29;20042;-40
2021/04/16 00:31:17;;;;;;;4.53;3.30;;;2.90;58.60;;;3.65;48.63;98352.06;4928273;29;20048;-40
2021/04/16 00:33:45;;;;;;;6.47;3.40;;;2.90;59.10;;;3.55;48.35;98354.44;4926904;29;20071;-40
2021/04/16 00:36:14;;;;;;;6.47;3.97;;;2.70;59.20;;;3.47;48.98;98349.69;4926323;29;20346;-41
2021/04/16 00:38:43;;;;;;;5.27;3.27;;;2.60;59.50;;;3.43;48.53;98345.56;4927853;29;20052;-40
2021/04/16 00:41:27;;;;;;;6.57;4.17;;;2.60;59.40;;;3.38;49.15;98341.53;4928136;29;20044;-40
2021/04/16 00:43:55;;;;;;;4.78;3.45;;;2.50;60.10;;;3.31;48.96;98348.97;4927299;29;20055;-40
2021/04/16 00:46:48;;;;;;;24.37;8.63;;;2.40;60.40;;;3.24;49.80;98345.88;4928127;29;20052;-40
2021/04/16 00:49:32;;;;;;;12.90;7.23;;;2.40;61.70;;;3.17;49.81;98339.31;4926952;29;20048;-40
2021/04/16 00:52:05;;;;;;;12.80;6.93;;;2.30;61.10;;;3.15;49.56;98339.41;4928132;29;20364;-40
2021/04/16 00:54:37;;;;;;;7.37;6.13;;;2.30;61.30;;;3.12;49.56;98341.38;4927060;29;20052;-40
2021/04/16 00:57:08;;;;;;;9.50;5.67;;;2.30;60.80;;;3.11;49.76;98335.28;4927536;29;20318;-40
2021/04/16 00:59:46;;;;;;;7.80;5.10;;;2.40;61.00;;;3.10;49.53;98335.38;4928065;29;20062;-40
2021/04/16 01:02:14;;;;;;;6.50;4.43;;;2.30;60.80;;;3.04;49.96;98333.16;4926547;29;20050;-40
2021/04/16 01:04:41;;;;;;;7.93;4.47;;;2.20;60.70;;;2.99;49.61;98333.44;4927911;29;20380;-40
2021/04/16 01:07:10;;;;;;;7.27;3.83;;;2.20;60.80;;;2.99;49.45;98328.19;4927324;29;20048;-40
2021/04/16 01:09:38;;;;;;;6.17;3.83;;;2.20;60.60;;;3.00;49.67;98327.22;4927522;29;20070;-40
2021/04/16 01:12:09;;;;;;;6.77;3.43;;;2.30;60.60;;;3.01;49.75;98330.72;4927584;29;20242;-40
2021/04/16 01:14:40;;;;;;;6.77;3.87;;;2.30;60.50;;;3.01;49.86;98328.94;4910124;29;20055;-41
2021/04/16 01:17:11;;;;;;;5.00;3.27;;;2.30;60.50;;;3.00;49.88;98324.59;4927067;29;20051;-40
2021/04/16 01:19:51;;;;;;;6.00;4.07;;;2.30;60.70;;;3.00;49.71;98326.38;4910164;29;20059;-40
2021/04/16 01:22:31;;;;;;;6.70;3.63;;;2.20;60.50;;;2.98;49.95;98320.38;4925533;29;20368;-40
2021/04/16 01:25:00;;;;;;;5.50;3.50;;;2.20;60.30;;;2.94;50.01;98317.94;4927400;29;20059;-41
2021/04/16 01:27:29;;;;;;;5.60;3.23;;;2.20;60.50;;;2.93;49.65;98312.78;4925830;29;20052;-40
2021/04/16 01:30:18;;;;;;;4.30;3.47;;;2.20;60.80;;;2.91;50.04;98317.31;4926910;29;20062;-41
2021/04/16 01:32:45;;;;;;;6.10;3.70;;;2.20;61.00;;;2.89;49.82;98317.41;4925572;29;20231;-40
2021/04/16 01:35:21;;;;;;;6.47;3.63;;;2.20;61.40;;;2.90;49.81;98318.25;4927290;29;20054;-40
2021/04/16 01:37:50;;;;;;;4.60;2.70;;;2.20;60.60;;;2.88;50.28;98317.50;4926542;29;20052;-40
2021/04/16 01:40:18;;;;;;;6.17;3.00;;;2.20;60.40;;;2.88;49.83;98312.22;4927072;29;20342;-40
2021/04/16 01:42:46;;;;;;;4.33;2.73;;;2.20;60.50;;;2.88;49.98;98315.69;4926099;29;20058;-41
2021/04/16 01:45:23;;;;;;;4.17;3.13;;;2.20;60.30;;;2.88;50.10;98322.75;4926758;29;20129;-40
2021/04/16 01:48:00;;;;;;;5.17;2.50;;;2.20;60.80;;;2.87;50.31;98314.03;4909750;29;20059;-40
2021/04/16 01:50:30;;;;;;;5.93;2.87;;;2.20;61.00;;;2.86;50.07;98314.94;4927041;29;20050;-41
2021/04/16 01:53:01;;;;;;;5.60;3.20;;;2.10;60.60;;;2.85;50.07;98310.66;4927140;29;20060;-40
2021/04/16 01:55:29;;;;;;;5.07;2.87;;;2.10;60.80;;;2.81;50.44;98314.41;4926785;29;20179;-40
2021/04/16 01:57:56;;;;;;;6.53;3.40;;;2.10;61.20;;;2.78;50.55;98298.81;4918567;29;20056;-40
2021/04/16 02:00:33;;;;;;;8.07;4.70;;;2.00;61.10;;;2.72;50.66;98302.66;4926853;29;20056;-40
2021/04/16 02:03:03;;;;;;;18.10;7.40;;;1.90;62.50;;;2.69;50.93;98304.66;4926679;29;20044;-40
2021/04/16 02:05:31;;;;;;;16.23;8.50;;;1.90;61.50;;;2.63;50.79;98303.25;4926646;29;20046;-40
2021/04/16 02:07:58;;;;;;;33.90;13.87;;;1.90;61.80;;;2.61;51.07;98299.88;4926124;29;20052;-40
2021/04/16 02:10:26;;;;;;;22.33;10.73;;;1.90;61.80;;;2.63;50.63;98300.59;4925872;29;20058;-41
2021/04/16 02:12:53;;;;;;;25.43;12.13;;;1.90;61.70;;;2.60;50.92;98299.94;4925872;29;20055;-40
2021/04/16 02:15:21;;;;;;;34.70;14.97;;;1.90;62.00;;;2.59;51.15;98299.13;4926527;29;20040;-40
2021/04/16 02:17:48;;;;;;;36.03;12.97;;;1.90;61.90;;;2.60;50.67;98298.19;4925972;29;20258;-40
2021/04/16 02:20:22;;;;;;;17.97;9.17;;;1.90;61.60;;;2.59;50.85;98301.75;4909435;29;20066;-40
2021/04/16 02:22:49;;;;;;;14.50;6.82;;;1.90;61.50;;;2.58;50.74;98300.06;4925551;29;20062;-40
2021/04/16 02:25:17;;;;;;;8.57;5.07;;;1.90;61.60;;;2.57;50.37;98298.38;4926207;29;20051;-40
2021/04/16 02:27:45;;;;;;;6.20;3.83;;;1.80;61.60;;;2.56;51.17;98296.69;4925773;29;20271;-40
2021/04/16 02:30:21;;;;;;;5.37;3.63;;;1.90;62.80;;;2.55;51.00;98302.88;4926290;29;20051;-40
2021/04/16 02:32:49;;;;;;;6.43;3.30;;;1.80;62.10;;;2.50;51.37;98297.91;4925660;29;20369;-40
2021/04/16 02:35:18;;;;;;;5.43;3.40;;;1.70;62.20;;;2.48;50.82;98297.16;4926094;29;20227;-40
2021/04/16 02:37:46;;;;;;;5.93;2.93;;;1.70;62.40;;;2.43;50.96;98296.59;4925622;29;20350;-40
2021/04/16 02:40:18;;;;;;;7.70;3.43;;;1.70;62.30;;;2.43;51.31;98301.84;4925837;29;20349;-40
2021/04/16 02:42:46;;;;;;;7.13;3.77;;;1.70;62.60;;;2.42;51.32;98296.69;4923937;29;20052;-40
2021/04/16 02:45:15;;;;;;;5.77;3.10;;;1.70;62.60;;;2.40;51.64;98298.56;4926039;29;20058;-40
2021/04/16 02:47:43;;;;;;;3.77;3.37;;;1.60;62.70;;;2.38;51.09;98300.44;4924467;29;20048;-41
2021/04/16 02:50:15;;;;;;;5.33;3.93;;;1.60;62.50;;;2.34;51.18;98290.09;4926016;29;20044;-40
2021/04/16 02:52:43;;;;;;;6.77;3.73;;;1.60;62.70;;;2.32;50.98;98291.16;4924348;29;20357;-40
2021/04/16 02:55:12;;;;;;;17.23;9.07;;;1.60;62.70;;;2.30;51.81;98290.41;4926055;29;20067;-40
2021/04/16 02:57:40;;;;;;;13.27;8.10;;;1.50;63.10;;;2.29;50.83;98293.97;4925622;29;20055;-40
2021/04/16 03:00:12;;;;;;;14.00;8.30;;;1.50;63.00;;;2.25;51.12;98292.44;4925777;29;20052;-40
2021/04/16 03:02:40;;;;;;;7.73;5.07;;;1.50;62.90;;;2.23;51.35;98292.56;4925622;29;20056;-40
2021/04/16 03:05:09;;;;;;;6.33;3.70;;;1.40;63.40;;;2.20;51.61;98287.47;4925985;29;20048;-40
2021/04/16 03:07:36;;;;;;;7.27;3.90;;;1.40;63.40;;;2.15;51.89;98286.91;4924483;29;20044;-40
2021/04/16 03:10:07;;;;;;;6.60;3.70;;;1.30;63.60;;;2.10;52.36;98289.81;4924897;29;20063;-40
2021/04/16 03:12:34;;;;;;;4.97;3.90;;;1.30;63.80;;;2.08;51.92;98282.97;4925775;29;20047;-40
2021/04/16 03:15:03;;;;;;;7.73;3.10;;;1.30;64.10;;;2.04;51.77;98284.09;4925679;29;20058;-40
2021/04/16 03:17:31;;;;;;;4.73;2.97;;;1.20;64.10;;;2.00;52.36;98282.56;4925325;29;20052;-40
2021/04/16 03:19:58;;;;;;;5.93;3.47;;;1.20;64.20;;;1.97;52.05;98278.38;4925658;29;20058;-40
2021/04/16 03:22:26;;;;;;;6.20;3.93;;;1.20;64.30;;;1.93;52.86;98279.47;4925589;29;20040;-40
2021/04/16 03:24:54;;;;;;;6.17;3.20;;;1.10;64.70;;;1.91;52.33;98276.94;4929421;29;20048;-40
2021/04/16 03:27:21;;;;;;;4.30;2.63;;;1.20;64.70;;;1.86;52.76;98278.16;4928987;29;20056;-40
2021/04/16 03:29:49;;;;;;;5.33;3.23;;;1.10;65.10;;;1.87;52.21;98278.06;4929424;29;20048;-40
2021/04/16 03:32:16;;;;;;;6.87;4.10;;;1.10;64.80;;;1.89;52.43;98281.44;4928473;29;20129;-40
2021/04/16 03:34:44;;;;;;;7.17;5.13;;;1.10;64.50;;;1.88;52.34;98273.66;4927124;29;20094;-40
2021/04/16 03:37:11;;;;;;;7.40;3.17;;;1.10;64.70;;;1.85;52.91;98277.31;4927800;29;20074;-40
2021/04/16 03:39:39;;;;;;;7.20;4.00;;;1.10;64.80;;;1.86;53.19;98278.16;4929285;29;20048;-40
2021/04/16 03:42:06;;;;;;;6.83;3.77;;;1.10;64.90;;;1.84;53.17;98277.41;4929281;29;20040;-40
2021/04/16 03:44:34;;;;;;;5.80;3.60;;;1.10;64.70;;;1.84;52.91;98277.41;4929078;29;20052;-40
2021/04/16 03:47:01;;;;;;;5.80;3.70;;;1.10;64.60;;;1.83;52.16;98276.56;4928953;29;20059;-41
2021/04/16 03:49:29;;;;;;;13.20;6.57;;;1.10;64.10;;;1.86;52.38;98278.16;4929243;29;20056;-40
2021/04/16 03:52:00;;;;;;;22.50;9.87;;;1.10;64.30;;;1.88;52.72;98271.03;4928996;29;20052;-42
2021/04/16 03:54:28;;;;;;;13.93;6.93;;;1.20;64.20;;;1.86;52.50;98275.53;4929054;29;20062;-40
2021/04/16 03:56:56;;;;;;;13.43;5.97;;;1.10;64.30;;;1.85;52.10;98265.97;4920424;29;20062;-40
2021/04/16 03:59:25;;;;;;;10.03;5.73;;;1.10;64.10;;;1.85;52.66;98279.94;4929016;29;20052;-40
2021/04/16 04:01:53;;;;;;;10.87;5.77;;;1.10;64.00;;;1.84;52.48;98273.00;4928993;29;20063;-40
2021/04/16 04:04:22;;;;;;;8.97;4.97;;;1.10;63.70;;;1.84;52.27;98275.63;4928882;29;20278;-40
2021/04/16 04:06:50;;;;;;;6.00;3.90;;;1.10;64.10;;;1.83;52.48;98273.09;4926997;29;20362;-40
2021/04/16 04:09:18;;;;;;;5.37;3.97;;;1.00;64.80;;;1.77;52.41;98279.56;4927716;29;20047;-41
2021/04/16 04:11:50;;;;;;;5.87;3.97;;;1.00;64.70;;;1.75;52.74;98284.88;4928803;29;20338;-40
2021/04/16 04:14:20;;;;;;;8.67;4.50;;;1.00;64.80;;;1.73;52.57;98286.75;4928830;29;20055;-40
2021/04/16 04:16:58;;;;;;;7.80;4.10;;;1.00;65.10;;;1.71;52.99;98278.13;4928414;29;20052;-40
2021/04/16 04:19:29;;;;;;;6.97;3.73;;;1.00;65.30;;;1.69;52.56;98287.88;4927511;29;20078;-40
2021/04/16 04:21:59;;;;;;;6.73;4.37;;;0.90;65.50;;;1.66;53.43;98287.22;4928503;29;20349;-40
2021/04/16 04:24:27;;;;;;;9.63;4.50;;;0.80;65.20;;;1.63;52.78;98280.38;4928578;29;20062;-40
2021/04/16 04:26:55;;;;;;;7.57;5.40;;;0.80;65.10;;;1.62;52.51;98288.31;4928025;29;20048;-40
2021/04/16 04:29:25;;;;;;;6.40;4.80;;;0.90;65.80;;;1.63;53.30;98287.38;4928399;29;20060;-40
2021/04/16 04:31:53;;;;;;;9.20;5.50;;;0.90;65.30;;;1.65;53.76;98291.63;4957012;23;20048;-40
2021/04/16 04:34:25;;;;;;;11.97;5.53;;;0.90;65.30;;;1.66;52.65;98284.59;4954584;29;20051;-40
2021/04/16 04:36:56;;;;;;;10.73;5.20;;;0.90;65.20;;;1.62;53.47;98286.53;4946842;29;20062;-40
2021/04/16 04:39:27;;;;;;;7.43;4.47;;;0.90;65.60;;;1.63;53.25;98284.75;4947323;29;20053;-40
2021/04/16 04:41:56;;;;;;;6.67;4.10;;;0.90;65.50;;;1.63;53.46;98284.75;4947308;29;20047;-40
2021/04/16 04:44:24;;;;;;;7.10;4.67;;;0.90;65.30;;;1.66;53.25;98293.28;4930565;29;20047;-40
2021/04/16 04:46:51;;;;;;;6.97;4.40;;;1.00;64.80;;;1.67;53.11;98289.75;4946621;29;20053;-40
2021/04/16 04:49:22;;;;;;;7.63;4.43;;;1.00;65.10;;;1.67;53.33;98300.25;4947119;29;20051;-40
2021/04/16 04:52:05;;;;;;;7.20;4.77;;;1.00;64.60;;;1.69;53.61;98294.91;4929757;29;20055;-40
2021/04/16 04:54:33;;;;;;;7.55;5.32;;;1.10;65.50;;;1.68;53.18;98295.84;4947055;29;20047;-40
2021/04/16 04:57:01;;;;;;;12.00;5.73;;;1.00;65.30;;;1.71;53.04;98296.50;4946527;29;20052;-40
2021/04/16 04:59:28;;;;;;;7.47;6.07;;;1.10;65.20;;;1.71;53.16;98288.63;4947124;29;20047;-40
2021/04/16 05:01:56;;;;;;;8.03;5.20;;;1.10;65.60;;;1.75;53.78;98297.19;4944041;29;20109;-41
2021/04/16 05:04:24;;;;;;;9.20;5.37;;;1.20;65.80;;;1.76;54.39;98294.47;4946768;29;20046;-40
2021/04/16 05:06:51;;;;;;;7.60;4.70;;;1.20;66.20;;;1.80;54.47;98294.28;4946471;29;20121;-40
2021/04/16 05:09:18;;;;;;;9.23;5.10;;;1.20;66.40;;;1.84;54.57;98293.16;4929608;29;20241;-40
2021/04/16 05:11:46;;;;;;;7.17;5.00;;;1.20;66.20;;;1.89;54.07;98293.75;4946347;29;20051;-40
2021/04/16 05:14:13;;;;;;;9.77;4.20;;;1.30;66.40;;;1.94;54.66;98299.56;4946784;29;20051;-41
2021/04/16 05:16:41;;;;;;;7.90;4.63;;;1.40;65.90;;;2.00;54.36;98293.09;4929361;29;20055;-40
2021/04/16 05:19:08;;;;;;;9.90;4.83;;;1.50;65.70;;;2.04;54.39;98290.19;4946258;29;20345;-39
2021/04/16 05:21:38;;;;;;;7.50;5.80;;;1.50;65.40;;;2.07;53.42;98292.63;4946430;29;20249;-40
2021/04/16 05:24:07;;;;;;;7.17;5.57;;;1.50;65.60;;;2.11;54.28;98295.91;4946496;29;20054;-39
2021/04/16 05:26:37;;;;;;;7.00;5.43;;;1.50;65.60;;;2.15;54.32;98300.03;4946457;29;20044;-39
2021/04/16 05:29:05;;;;;;;15.23;8.43;;;1.60;65.60;;;2.21;54.58;98301.47;4945811;29;20048;-40
2021/04/16 05:31:33;;;;;;;11.90;7.67;;;1.70;66.10;;;2.27;54.81;98301.94;4945627;29;20058;-39
2021/04/16 05:34:00;;;;;;;8.47;6.40;;;1.80;66.00;;;2.37;54.98;98307.47;4945460;29;20051;-40
2021/04/16 05:36:28;;;;;;;8.47;6.20;;;2.00;66.10;;;2.47;55.08;98305.13;4946258;29;20063;-40
2021/04/16 05:38:56;;;;;;;8.93;6.00;;;2.10;66.10;;;2.56;55.00;98301.94;4945869;29;20051;-39
2021/04/16 05:41:23;;;;;;;8.43;5.83;;;2.30;65.90;;;2.64;55.11;98304.09;4945557;29;20062;-39
2021/04/16 05:43:51;;;;;;;13.50;9.30;;;2.40;65.60;;;2.71;55.26;98303.59;4929539;29;20363;-40
2021/04/16 05:46:18;;;;;;;13.10;9.60;;;2.50;65.50;;;2.78;55.38;98308.50;4945444;29;20049;-40
2021/04/16 05:48:46;;;;;;;8.73;7.00;;;2.50;66.30;;;2.82;55.21;98305.56;4945374;29;20047;-39
2021/04/16 05:51:13;;;;;;;7.30;5.20;;;2.50;66.10;;;2.88;55.25;98312.22;4946092;29;20044;-40
2021/04/16 05:53:41;;;;;;;7.43;5.43;;;2.60;66.50;;;2.86;55.74;98309.69;4945622;29;20070;-40
2021/04/16 05:56:08;;;;;;;9.03;5.10;;;2.50;67.80;;;2.81;55.87;98308.28;4946009;29;20348;-40
2021/04/16 05:58:36;;;;;;;5.93;4.93;;;2.30;68.40;;;2.86;55.75;98311.47;4945415;29;20040;-40
2021/04/16 06:01:03;;;;;;;6.93;4.33;;;2.40;67.60;;;2.84;55.77;98322.09;4943630;29;20059;-39
2021/04/16 06:03:31;;;;;;;5.77;3.97;;;2.40;67.80;;;2.73;56.01;98316.66;4945640;29;20047;-39
2021/04/16 06:06:01;;;;;;;4.80;4.10;;;2.20;68.00;;;2.75;56.61;98320.91;4944716;29;20059;-40
2021/04/16 06:08:33;;;;;;;7.90;5.00;;;2.30;68.80;;;2.73;56.27;98324.53;4945123;29;20044;-40
2021/04/16 06:11:01;;;;;;;7.70;4.57;;;2.20;68.50;;;2.74;55.88;98324.44;4944649;29;20253;-40
2021/04/16 06:13:29;;;;;;;5.17;4.03;;;2.20;68.60;;;2.81;56.06;98326.69;4945331;29;20052;-40
2021/04/16 06:15:59;;;;;;;6.70;4.57;;;2.30;68.10;;;2.83;56.35;98327.44;4945560;29;20055;-40
2021/04/16 06:18:26;;;;;;;5.17;4.50;;;2.40;68.20;;;2.89;56.67;98327.06;4922533;29;20048;-40
2021/04/16 06:20:54;;;;;;;5.43;4.30;;;2.50;68.30;;;2.92;56.18;98332.13;4951472;29;20058;-40
2021/04/16 06:23:22;;;;;;;6.70;4.40;;;2.50;68.70;;;2.92;56.44;98321.63;4952599;29;20048;-41
2021/04/16 06:25:50;;;;;;;5.97;4.23;;;2.40;68.20;;;2.95;56.20;98324.06;4944744;29;20056;-40
2021/04/16 06:28:18;;;;;;;6.80;4.80;;;2.50;68.10;;;3.00;56.42;98321.13;4928175;29;20059;-39
2021/04/16 06:30:46;;;;;;;5.93;4.03;;;2.60;68.00;;;3.05;56.35;98325.16;4945321;29;20050;-41
2021/04/16 06:33:13;;;;;;;5.57;4.03;;;2.70;68.60;;;3.09;56.40;98323.19;4944776;29;20345;-42
2021/04/16 06:35:54;;;;;;;6.23;4.63;;;2.80;67.50;;;3.19;56.34;98324.28;4943914;29;20329;-40
2021/04/16 06:38:29;;;;;;;6.13;4.47;;;2.90;68.40;;;3.28;56.76;98309.69;4943883;29;20055;-40
2021/04/16 06:40:58;;;;;;;6.40;3.80;;;3.10;68.00;;;3.40;56.49;98318.59;4945288;29;20051;-40
2021/04/16 06:43:49;;;;;;;6.17;4.33;;;3.20;67.60;;;3.47;56.87;98312.81;4928523;29;20043;-41
2021/04/16 06:46:38;;;;;;;6.13;4.80;;;3.30;68.50;;;3.52;56.50;98315.97;4945228;29;20054;-40
2021/04/16 06:49:12;;;;;;;5.53;4.00;;;3.30;68.30;;;3.58;56.71;98314.72;4928548;29;20051;-42
2021/04/16 06:51:51;;;;;;;5.53;4.22;;;3.30;67.70;;;3.66;57.00;98314.22;4928822;29;20297;-43
2021/04/16 06:54:24;;;;;;;5.93;4.17;;;3.40;68.00;;;3.72;56.23;98316.44;4944959;29;20066;-41
2021/04/16 06:56:53;;;;;;;6.13;4.07;;;3.50;67.30;;;3.80;55.87;98311.53;4928240;29;20051;-41
2021/04/16 06:59:33;;;;;;;7.13;4.80;;;3.60;66.70;;;3.87;56.06;98315.44;4927526;29;20056;-44
2021/04/16 07:02:11;;;;;;;6.33;4.87;;;3.70;66.80;;;3.93;56.51;98314.19;4927080;29;20342;-41
2021/04/16 07:04:53;;;;;;;11.00;5.20;;;3.70;66.50;;;3.97;56.52;98318.28;4928807;29;20045;-41
2021/04/16 07:07:30;;;;;;;6.03;4.73;;;3.80;66.80;;;3.96;56.49;98321.88;4928220;29;20363;-41
2021/04/16 07:10:10;;;;;;;6.13;4.40;;;3.70;66.70;;;4.02;56.59;98313.56;4928096;29;20048;-42
2021/04/16 07:12:40;;;;;;;5.27;4.17;;;3.80;66.60;;;4.10;56.70;98324.41;4928831;29;20050;-41
2021/04/16 07:15:13;;;;;;;8.37;5.10;;;4.00;66.50;;;4.18;56.46;98317.78;4944212;29;20058;-41
2021/04/16 07:17:44;;;;;;;5.50;4.13;;;4.10;66.20;;;4.23;55.95;98326.25;4943861;29;20061;-42
2021/04/16 07:20:18;;;;;;;5.70;4.20;;;4.10;65.60;;;4.25;56.22;98322.53;4944747;29;20043;-44
2021/04/16 07:22:53;;;;;;;5.53;4.10;;;4.10;65.60;;;4.32;56.00;98336.13;4927484;29;20090;-42
2021/04/16 07:25:33;;;;;;;5.50;4.17;;;4.30;65.60;;;4.38;56.15;98329.59;4944632;29;20046;-44
2021/04/16 07:28:25;;;;;;;8.23;4.57;;;4.30;65.60;;;4.42;55.51;98326.66;4944399;29;20391;-41
2021/04/16 07:30:54;;;;;;;6.33;4.60;;;4.40;65.30;;;4.44;56.12;98326.53;4930349;29;20048;-42
2021/04/16 07:33:41;;;;;;;5.80;4.10;;;4.40;64.90;;;4.50;55.65;98331.41;4927104;29;20056;-41
2021/04/16 07:36:35;;;;;;;5.00;4.43;;;4.50;64.80;;;4.59;55.27;98327.28;4944495;29;20054;-41
2021/04/16 07:39:12;;;;;;;5.82;4.55;;;4.60;64.60;;;4.58;55.65;98337.00;4929647;29;20050;-41
2021/04/16 07:41:55;;;;;;;6.80;4.70;;;4.60;64.10;;;4.65;55.21;98332.97;4927835;29;20052;-41
2021/04/16 07:44:28;;;;;;;5.57;4.17;;;4.70;63.90;;;4.70;55.75;98327.38;4906126;29;20298;-41
2021/04/16 07:47:12;;;;;;;6.47;4.13;;;4.70;64.10;;;4.72;55.49;98333.38;4907385;29;20052;-41
2021/04/16 07:49:57;;;;;;;5.20;4.25;;;4.70;64.00;;;4.80;55.59;98328.41;4932485;29;20048;-42
2021/04/16 07:52:43;;;;;;;7.30;4.40;;;4.80;64.10;;;4.84;55.05;98323.75;4941742;29;20113;-42
2021/04/16 07:55:26;;;;;;;4.77;3.63;;;4.80;64.10;;;4.92;55.33;98327.56;4942090;29;20054;-43
2021/04/16 07:58:15;;;;;;;5.40;4.40;;;4.90;63.80;;;5.02;54.71;98326.88;4925031;29;20055;-43
2021/04/16 08:00:46;;;;;;;5.67;4.43;;;4.90;64.20;;;5.06;54.91;98337.13;4941013;29;20050;-43
2021/04/16 08:03:44;;;;;;;6.83;4.07;;;5.00;63.60;;;5.12;54.77;98331.41;4947591;29;20062;-42
2021/04/16 08:07:01;;;;;;;4.87;4.00;;;5.10;63.40;;;5.20;54.54;98336.13;4921148;29;20051;-42
2021/04/16 08:09:30;;;;;;;5.67;4.40;;;5.10;63.30;;;5.17;54.35;98330.22;4893832;29;20357;-42
2021/04/16 08:12:06;;;;;;;7.47;4.00;;;5.10;63.10;;;5.16;54.66;98329.38;4949474;29;20053;-42
2021/04/16 08:14:39;;;;;;;6.80;4.70;;;5.10;62.80;;;5.18;55.10;98335.41;4936139;29;20055;-43
2021/04/16 08:17:30;;;;;;;5.77;4.30;;;5.10;62.90;;;5.19;54.08;98331.78;4950119;29;20047;-43
2021/04/16 08:20:35;;;;;;;4.80;4.13;;;5.10;62.70;;;5.25;54.48;98341.06;4953860;29;20062;-41
2021/04/16 08:23:13;;;;;;;5.60;4.17;;;5.10;62.90;;;5.31;54.48;98340.63;4913711;29;20048;-41
2021/04/16 08:25:55;;;;;;;6.30;4.67;;;5.20;62.90;;;5.40;54.74;98336.47;4911207;29;20352;-42
2021/04/16 08:29:03;;;;;;;8.30;5.17;;;5.40;62.40;;;5.45;54.20;98340.47;4909914;29;20064;-42
2021/04/16 08:31:43;;;;;;;4.40;3.97;;;5.40;62.60;;;5.48;54.43;98342.03;4910270;29;20052;-42
2021/04/16 08:34:19;;;;;;;8.70;4.40;;;5.40;62.50;;;5.51;54.18;98340.03;4914753;29;20044;-44
2021/04/16 08:36:48;;;;;;;5.60;4.23;;;5.40;62.40;;;5.58;53.64;98342.22;4931060;29;20054;-42
2021/04/16 08:39:31;;;;;;;7.03;5.30;;;5.40;62.30;;;5.63;53.80;98342.72;4929558;29;20353;-42
2021/04/16 08:42:15;;;;;;;6.83;4.40;;;5.50;62.00;;;5.67;53.91;98349.47;4931175;29;20345;-41
2021/04/16 08:45:00;;;;;;;4.43;3.97;;;5.60;61.90;;;5.72;53.50;98347.34;4930010;29;20292;-44
2021/04/16 08:47:31;;;;;;;4.90;4.23;;;5.60;61.60;;;5.76;53.53;98340.88;4931575;29;20047;-43
2021/04/16 08:50:01;;;;;;;7.33;4.67;;;5.60;61.40;;;5.77;53.37;98344.34;4947014;29;20054;-44
2021/04/16 08:52:47;;;;;;;5.63;4.30;;;5.70;61.70;;;5.81;53.35;98335.22;4914263;29;20053;-42
2021/04/16 08:55:48;;;;;;;6.10;4.17;;;5.80;61.30;;;5.81;52.51;98341.34;4912393;29;20261;-42
2021/04/16 08:58:32;;;;;;;6.77;4.53;;;5.80;60.10;;;5.82;52.58;98337.75;4938159;29;20065;-42
2021/04/16 09:01:08;;;;;;;;;;;5.60;61.40;;;5.81;53.81;98340.50;4946539;29;20082;-44
2021/04/16 09:04:11;;;;;;;5.43;4.53;;;5.60;61.40;;;5.85;52.88;98334.88;4929477;29;19919;-44
2021/04/16 09:06:39;;;;;;;6.27;4.67;;;5.70;61.60;;;5.91;53.64;98333.56;4929610;29;20051;-42
2021/04/16 09:09:12;;;;;;;7.40;5.37;;;5.80;61.20;;;5.92;52.96;98336.09;4945776;29;20048;-43
2021/04/16 09:11:45;;;;;;;6.57;4.53;;;5.80;61.00;;;5.97;53.01;98337.59;4928284;29;20057;-43
2021/04/16 09:14:24;;;;;;;5.27;4.43;;;5.90;61.30;;;6.02;52.87;98338.94;4945625;29;20058;-43
2021/04/16 09:16:55;;;;;;;6.80;4.53;;;5.90;61.00;;;6.04;52.60;98336.19;4945177;29;20055;-44
2021/04/16 09:19:25;;;;;;;5.40;4.60;;;6.00;60.80;;;6.05;52.75;98337.88;4945895;29;20051;-44
2021/04/16 09:22:02;;;;;;;7.07;4.50;;;6.00;61.10;;;6.09;52.24;98334.88;4944902;29;20055;-43
2021/04/16 09:24:56;;;;;;;6.80;5.00;;;6.00;60.10;;;6.09;53.07;98334.88;4945569;29;20056;-45
2021/04/16 09:27:26;;;;;;;5.73;4.67;;;6.00;60.40;;;6.14;53.02;98323.94;4928810;29;20056;-42
2021/04/16 09:29:59;;;;;;;6.87;5.07;;;6.00;60.70;;;6.17;52.64;98330.81;4945590;29;20058;-43
2021/04/16 09:32:33;;;;;;;5.47;4.43;;;6.10;60.10;;;6.19;52.67;98328.91;4945557;29;20051;-44
2021/04/16 09:35:26;;;;;;;5.60;4.53;;;6.20;59.80;;;6.09;51.86;98337.53;4945642;29;20241;-43
2021/04/16 09:38:37;;;;;;;8.07;4.83;;;6.10;59.50;;;6.05;52.37;98333.44;4940900;29;20056;-42
2021/04/16 09:41:33;;;;;;;6.23;5.10;;;5.80;60.30;;;6.06;52.54;98335.09;4946120;29;20341;-43
2021/04/16 09:44:27;;;;;;;7.90;4.83;;;5.90;60.20;;;6.13;51.96;98334.63;4928066;29;20060;-45
2021/04/16 09:47:01;;;;;;;6.23;4.33;;;5.90;60.20;;;6.20;52.16;98334.03;4945557;29;20345;-43
2021/04/16 09:49:39;;;;;;;5.50;4.13;;;6.10;60.10;;;6.26;52.11;98330.09;4945987;29;20040;-44
2021/04/16 09:52:37;;;;;;;4.90;4.40;;;6.20;59.90;;;6.34;51.67;98338.31;4945212;29;20052;-43
2021/04/16 09:55:45;;;;;;;5.30;4.27;;;6.50;58.80;;;6.38;51.70;98330.94;4945107;29;20055;-44
2021/04/16 09:58:32;;;;;;;7.33;4.03;;;6.50;58.30;;;6.47;52.14;98331.09;4944675;29;20077;-43
2021/04/16 10:01:19;;;;;;;6.47;4.97;;;6.60;58.70;;;6.60;51.55;98324.88;4944630;29;20059;-46
2021/04/16 10:03:56;;;;;;;6.87;4.77;;;6.70;58.50;;;6.72;52.02;98325.69;4945857;29;20058;-48
2021/04/16 10:06:29;;;;;;;6.07;4.50;;;6.90;58.80;;;6.77;51.50;98321.75;4945209;29;20047;-43
2021/04/16 10:09:05;;;;;;;6.43;4.20;;;7.00;58.00;;;6.81;51.09;98320.53;4944814;29;20248;-42
2021/04/16 10:11:34;;;;;;;5.47;4.20;;;7.10;56.70;;;6.83;51.28;98323.06;4944965;29;20061;-42
2021/04/16 10:14:24;;;;;;;6.40;4.47;;;7.00;56.90;;;6.81;50.89;98307.28;4928674;29;20051;-42
2021/04/16 10:17:15;;;;;;;6.00;4.67;;;6.90;56.30;;;6.85;50.40;98316.66;4945235;29;20158;-42
2021/04/16 10:19:52;;;;;;;6.30;4.57;;;6.90;57.50;;;6.87;51.02;98313.91;4928271;29;20064;-42
2021/04/16 10:22:25;;;;;;;6.47;4.60;;;6.90;57.40;;;6.89;50.65;98315.47;4945497;29;20315;-44
2021/04/16 12:38:58;;;;;;;4.10;3.00;;;6.70;54.30;;;6.78;46.52;98285.53;4955144;29;20081;-46
2021/04/16 12:41:39;;;;;;;3.72;2.75;;;6.60;53.40;;;6.83;46.75;98283.34;4966130;29;20061;-46
2021/04/16 12:44:07;;;;;;;4.93;3.40;;;6.60;53.70;;;6.90;47.45;98281.88;4950344;29;20047;-44
2021/04/16 12:46:38;;;;;;;4.13;3.20;;;6.70;54.10;;;6.99;47.13;98280.31;4964258;29;20373;-46
2021/04/16 12:49:08;;;;;;;4.63;3.53;;;6.90;53.20;;;7.08;46.83;98282.25;4949194;29;20057;-44
2021/04/16 12:51:35;;;;;;;4.90;3.20;;;7.00;53.30;;;7.12;47.37;98275.72;4966001;29;20066;-47
2021/04/16 12:54:03;;;;;;;4.13;3.13;;;7.00;52.60;;;7.10;46.79;98278.50;4966299;29;20057;-48
2021/04/16 12:56:42;;;;;;;4.93;3.27;;;6.90;53.10;;;7.15;46.20;98271.97;4948441;29;20078;-46
2021/04/16 12:59:25;;;;;;;3.73;2.60;;;7.00;52.90;;;6.98;44.98;98268.91;4948971;29;20232;-46
2021/04/16 13:01:53;;;;;;;3.87;2.57;;;6.90;52.00;;;6.99;46.23;98269.75;4965224;29;20058;-47
2021/04/16 13:04:25;;;;;;;3.50;2.53;;;6.80;52.10;;;6.97;45.46;98271.66;4965964;29;20058;-44
2021/04/16 13:06:59;;;;;;;4.20;3.33;;;6.80;51.40;;;7.00;45.61;98279.34;4932771;29;20058;-45
2021/04/16 13:09:27;;;;;;;4.63;3.30;;;6.80;53.40;;;7.04;46.54;98271.06;4948900;29;20047;-44
2021/04/16 13:11:54;;;;;;;3.67;2.70;;;6.90;53.40;;;7.13;46.85;98269.44;4965679;29;20047;-46
2021/04/16 13:14:21;;;;;;;3.03;2.50;;;7.00;53.10;;;7.16;46.34;98266.56;4965688;29;20345;-45